Virgie Cenac — WDC2765 — position and weather

sailwx.info

Track history (hours):
 
Tides and Currents Weather Stations Pressure Air Temp Water Temp Dewpoint Dewpoint Depression Visibility Wind Speed Wind Dir Waves Ship Positions

Virgie Cenac

Owner: Cenac Marine Transportation, Inc., Houma, LA. More information available from US FCC via Universal Licensing System and Coast Guard Vessel Documentation Center.

Last reported at 2017-Jan-18 13:33 UTC. Time now 2017-Jan-18 14:07 UTC.
Position N 29°34' W 090°42'.

Length 18 m; draft 3 m.

Type: Towing. MMSI: 366997430.

Date/timePositionNaut miles runAvg speedWind from/ knotsBaromVisibWave heightAir tempDewpointWater temp
2017-Jan-18 13:33N 29°34' W 090°42'0 0.2
2017-Jan-18 12:33N 29°34' W 090°42'1 0.7
2017-Jan-18 11:33N 29°34' W 090°43'0 0.0
2017-Jan-18 10:33N 29°34' W 090°43'0 0.0
2017-Jan-18 09:33N 29°34' W 090°43'0 0.0
2017-Jan-18 08:33N 29°34' W 090°43'0 0.0
2017-Jan-18 07:33N 29°34' W 090°43'0 0.0
2017-Jan-18 06:33N 29°34' W 090°43'0 0.0
2017-Jan-18 05:33N 29°34' W 090°43'0 0.0
2017-Jan-18 04:33N 29°34' W 090°43'0 0.0
2017-Jan-18 03:33N 29°34' W 090°43'0 0.0
2017-Jan-18 02:33N 29°34' W 090°43'0 0.0
2017-Jan-18 01:33N 29°34' W 090°43'0 0.0
2017-Jan-18 00:33N 29°34' W 090°43'0 0.0
2017-Jan-17 23:33N 29°34' W 090°43'0 0.0
2017-Jan-17 22:33N 29°34' W 090°43'0 0.2
2017-Jan-17 21:33N 29°34' W 090°43'0 0.2
2017-Jan-17 20:33N 29°34' W 090°43'0 0.0
2017-Jan-17 19:34N 29°34' W 090°43'1 0.6
2017-Jan-17 18:33N 29°34' W 090°42'3 3.3
2017-Jan-17 17:33N 29°36' W 090°39'3 3.0
2017-Jan-17 16:33N 29°35' W 090°36'5 5.2
2017-Jan-17 15:33N 29°37' W 090°42'3 3.2
2017-Jan-17 14:33N 29°34' W 090°43'0 0.3
2017-Jan-17 13:33N 29°34' W 090°42'0 0.4
2017-Jan-17 12:33N 29°34' W 090°43'0 0.0
2017-Jan-17 11:33N 29°34' W 090°43'0 0.0
2017-Jan-17 10:34N 29°34' W 090°43'0 0.0
2017-Jan-17 09:33N 29°34' W 090°43'0 0.0
2017-Jan-17 08:33N 29°34' W 090°43'0 0.0
2017-Jan-17 07:33N 29°34' W 090°43'0 0.0
2017-Jan-17 06:33N 29°34' W 090°43'0 0.0
2017-Jan-17 05:33N 29°34' W 090°43'0 0.0
2017-Jan-17 04:33N 29°34' W 090°43'0 0.0
2017-Jan-17 03:33N 29°34' W 090°43'0 0.0
2017-Jan-17 02:33N 29°34' W 090°43'0 0.0
2017-Jan-17 01:33N 29°34' W 090°43'0 0.0
2017-Jan-17 00:33N 29°34' W 090°43'0 0.0
2017-Jan-16 23:33N 29°34' W 090°43'0 0.0
2017-Jan-16 22:33N 29°34' W 090°43'0 0.0
2017-Jan-16 21:34N 29°34' W 090°43'0 0.0
2017-Jan-16 20:33N 29°34' W 090°43'1 0.8
2017-Jan-16 19:33N 29°34' W 090°42'0 0.0
2017-Jan-16 18:33N 29°34' W 090°42'1 0.6
2017-Jan-16 17:33N 29°34' W 090°43'3 2.9
2017-Jan-16 16:33N 29°32' W 090°46'3 0.6
2017-Jan-16 12:33N 29°32' W 090°49'5 5.3
2017-Jan-16 11:33N 29°34' W 090°43'0 0.5
2017-Jan-16 10:33N 29°34' W 090°43'0 0.0
2017-Jan-16 09:33N 29°34' W 090°43'0 0.0
2017-Jan-16 08:33N 29°34' W 090°43'0 0.0
2017-Jan-16 07:33N 29°34' W 090°43'0 0.0
2017-Jan-16 06:33N 29°34' W 090°43'0 0.0
2017-Jan-16 05:33N 29°34' W 090°43'0 0.0
2017-Jan-16 04:33N 29°34' W 090°43'0 0.0
2017-Jan-16 03:33N 29°34' W 090°43'0 0.0
2017-Jan-16 02:33N 29°34' W 090°43'0 0.0
2017-Jan-16 01:34N 29°34' W 090°43'0 0.0
2017-Jan-16 00:33N 29°34' W 090°43'3 2.7
2017-Jan-15 23:33N 29°36' W 090°40'0 0.2
2017-Jan-15 22:33N 29°36' W 090°40'5 5.4
2017-Jan-15 21:34N 29°33' W 090°45'64 3.1
2017-Jan-15 01:21N 29°51' W 091°56'3 4.3
2017-Jan-15 00:33N 29°50' W 091°59'4 4.4
2017-Jan-14 23:33N 29°48' W 092°04'5 4.6
2017-Jan-14 22:33N 29°47' W 092°09'4 4.5
2017-Jan-14 21:33N 29°48' W 092°14'5 5.2
2017-Jan-14 20:33N 29°50' W 092°20'41 4.5
2017-Jan-14 11:27N 29°56' W 093°06'3 3.6
2017-Jan-14 10:33N 29°56' W 093°10'4 3.8
2017-Jan-14 09:33N 29°59' W 093°13'3 3.4
2017-Jan-14 08:33N 30°02' W 093°15'4 3.6
2017-Jan-14 07:33N 30°05' W 093°17'2 1.5
2017-Jan-14 06:33N 30°06' W 093°19'1 1.2
2017-Jan-14 05:33N 30°05' W 093°20'3 3.2
2017-Jan-14 04:33N 30°04' W 093°23'8 0.2
2017-Jan-12 19:33N 30°04' W 093°32'61 6.5
2017-Jan-12 10:14N 29°53' W 092°23'5 7.4
2017-Jan-12 09:34N 29°50' W 092°18'6 6.2
2017-Jan-12 08:33N 29°47' W 092°12'8 7.6
2017-Jan-12 07:33N 29°49' W 092°03'65 7.1
2017-Jan-11 22:19N 29°32' W 090°50'5 6.7
2017-Jan-11 21:33N 29°34' W 090°45'2 2.1
2017-Jan-11 20:34N 29°34' W 090°43'0 0.0
2017-Jan-11 19:33N 29°34' W 090°43'0 0.0
2017-Jan-11 18:33N 29°34' W 090°43'0 0.0
2017-Jan-11 17:33N 29°34' W 090°43'0 0.0
2017-Jan-11 16:33N 29°34' W 090°43'0 0.0
2017-Jan-11 15:33N 29°34' W 090°43'0 0.0
2017-Jan-11 14:33N 29°34' W 090°43'0 0.0
2017-Jan-11 13:33N 29°34' W 090°43'0 0.0
2017-Jan-11 12:33N 29°34' W 090°43'0 0.0
2017-Jan-11 11:33N 29°34' W 090°43'0 0.0
2017-Jan-11 10:33N 29°34' W 090°43'0 0.0
2017-Jan-11 09:33N 29°34' W 090°43'0 0.0
2017-Jan-11 08:33N 29°34' W 090°43'0 0.0
2017-Jan-11 07:33N 29°34' W 090°43'0 0.0
2017-Jan-11 06:33N 29°34' W 090°43'0 0.0
2017-Jan-11 05:34N 29°34' W 090°43'0 0.0
2017-Jan-11 04:33N 29°34' W 090°43'0 0.0
2017-Jan-11 03:34N 29°34' W 090°43'0 0.0
2017-Jan-11 02:33N 29°34' W 090°43'0 0.0
2017-Jan-11 01:33N 29°34' W 090°43'0 0.0
2017-Jan-11 00:33N 29°34' W 090°43'0 0.0
2017-Jan-10 23:33N 29°34' W 090°43'0 0.0
2017-Jan-10 22:33N 29°34' W 090°43'0 0.0
2017-Jan-10 21:33N 29°34' W 090°43'0 0.2
2017-Jan-10 20:33N 29°34' W 090°43'3 2.7
2017-Jan-10 19:34N 29°36' W 090°41'5 4.3
2017-Jan-10 18:30N 29°35' W 090°36'0 0.0
2017-Jan-10 17:33N 29°35' W 090°36'0 0.0
2017-Jan-10 16:29N 29°35' W 090°36'1 1.1
2017-Jan-10 15:33N 29°35' W 090°38'5 4.7
2017-Jan-10 14:33N 29°34' W 090°43'1 0.9
2017-Jan-10 13:33N 29°33' W 090°43'0 0.0
2017-Jan-10 12:33N 29°33' W 090°43'0 0.0
2017-Jan-10 11:33N 29°33' W 090°43'0 0.0
2017-Jan-10 10:33N 29°33' W 090°43'0 0.0
2017-Jan-10 09:33N 29°33' W 090°43'0 0.0
2017-Jan-10 08:33N 29°33' W 090°43'3 2.5
2017-Jan-10 07:33N 29°33' W 090°45'4 0.3
2017-Jan-09 19:33N 29°32' W 090°50'4 3.7
2017-Jan-09 18:33N 29°32' W 090°46'3 3.0
2017-Jan-09 17:33N 29°34' W 090°43'3 2.5
2017-Jan-09 16:34N 29°32' W 090°42'4 3.4
2017-Jan-09 15:31N 29°28' W 090°43'4 0.7
2017-Jan-09 10:03N 29°24' W 090°44'4 7.7
2017-Jan-09 09:33N 29°28' W 090°43'6 6.0
2017-Jan-09 08:33N 29°34' W 090°43'0 0.0
2017-Jan-09 07:33N 29°34' W 090°43'0 0.0
2017-Jan-09 06:33N 29°34' W 090°43'0 0.0
2017-Jan-09 05:33N 29°34' W 090°43'0 0.0
2017-Jan-09 04:33N 29°34' W 090°43'0 0.0
2017-Jan-09 03:33N 29°34' W 090°43'0 0.0
2017-Jan-09 02:33N 29°34' W 090°43'0 0.0
2017-Jan-09 01:33N 29°34' W 090°43'0 0.0
2017-Jan-09 00:33N 29°34' W 090°43'0 0.0
2017-Jan-08 23:33N 29°34' W 090°43'0 0.0
2017-Jan-08 22:33N 29°34' W 090°43'0 0.0
2017-Jan-08 21:33N 29°34' W 090°43'0 0.0
2017-Jan-08 20:33N 29°34' W 090°43'0 0.0
2017-Jan-08 19:33N 29°34' W 090°43'0 0.0
2017-Jan-08 18:33N 29°34' W 090°43'0 0.0
2017-Jan-08 17:33N 29°34' W 090°43'0 0.0
2017-Jan-08 16:33N 29°34' W 090°43'0 0.0
2017-Jan-08 15:33N 29°34' W 090°43'0 0.0
2017-Jan-08 14:33N 29°34' W 090°43'0 0.0
2017-Jan-08 13:33N 29°34' W 090°43'  
Track history (hours):
 
Tides and Currents Weather Stations Pressure Air Temp Water Temp Dewpoint Dewpoint Depression Visibility Wind Speed Wind Dir Waves Ship Positions

Virgie Cenac

Owner: Cenac Marine Transportation, Inc., Houma, LA. More information available from US FCC via Universal Licensing System and Coast Guard Vessel Documentation Center.

Last reported at 2017-Jan-18 13:33 UTC. Time now 2017-Jan-18 14:07 UTC.
Position N 29°34' W 090°42'.

Length 18 m; draft 3 m.

Type: Towing. MMSI: 366997430.

Date/timePositionNaut miles runAvg speedWind from/ knotsBaromVisibWave heightAir tempDewpointWater temp
2017-Jan-18 13:33N 29°34' W 090°42'0 0.2
2017-Jan-18 12:33N 29°34' W 090°42'1 0.7
2017-Jan-18 11:33N 29°34' W 090°43'0 0.0
2017-Jan-18 10:33N 29°34' W 090°43'0 0.0
2017-Jan-18 09:33N 29°34' W 090°43'0 0.0
2017-Jan-18 08:33N 29°34' W 090°43'0 0.0
2017-Jan-18 07:33N 29°34' W 090°43'0 0.0
2017-Jan-18 06:33N 29°34' W 090°43'0 0.0
2017-Jan-18 05:33N 29°34' W 090°43'0 0.0
2017-Jan-18 04:33N 29°34' W 090°43'0 0.0
2017-Jan-18 03:33N 29°34' W 090°43'0 0.0
2017-Jan-18 02:33N 29°34' W 090°43'0 0.0
2017-Jan-18 01:33N 29°34' W 090°43'0 0.0
2017-Jan-18 00:33N 29°34' W 090°43'0 0.0
2017-Jan-17 23:33N 29°34' W 090°43'0 0.0
2017-Jan-17 22:33N 29°34' W 090°43'0 0.2
2017-Jan-17 21:33N 29°34' W 090°43'0 0.2
2017-Jan-17 20:33N 29°34' W 090°43'0 0.0
2017-Jan-17 19:34N 29°34' W 090°43'1 0.6
2017-Jan-17 18:33N 29°34' W 090°42'3 3.3
2017-Jan-17 17:33N 29°36' W 090°39'3 3.0
2017-Jan-17 16:33N 29°35' W 090°36'5 5.2
2017-Jan-17 15:33N 29°37' W 090°42'3 3.2
2017-Jan-17 14:33N 29°34' W 090°43'0 0.3
2017-Jan-17 13:33N 29°34' W 090°42'0 0.4
2017-Jan-17 12:33N 29°34' W 090°43'0 0.0
2017-Jan-17 11:33N 29°34' W 090°43'0 0.0
2017-Jan-17 10:34N 29°34' W 090°43'0 0.0
2017-Jan-17 09:33N 29°34' W 090°43'0 0.0
2017-Jan-17 08:33N 29°34' W 090°43'0 0.0
2017-Jan-17 07:33N 29°34' W 090°43'0 0.0
2017-Jan-17 06:33N 29°34' W 090°43'0 0.0
2017-Jan-17 05:33N 29°34' W 090°43'0 0.0
2017-Jan-17 04:33N 29°34' W 090°43'0 0.0
2017-Jan-17 03:33N 29°34' W 090°43'0 0.0
2017-Jan-17 02:33N 29°34' W 090°43'0 0.0
2017-Jan-17 01:33N 29°34' W 090°43'0 0.0
2017-Jan-17 00:33N 29°34' W 090°43'0 0.0
2017-Jan-16 23:33N 29°34' W 090°43'0 0.0
2017-Jan-16 22:33N 29°34' W 090°43'0 0.0
2017-Jan-16 21:34N 29°34' W 090°43'0 0.0
2017-Jan-16 20:33N 29°34' W 090°43'1 0.8
2017-Jan-16 19:33N 29°34' W 090°42'0 0.0
2017-Jan-16 18:33N 29°34' W 090°42'1 0.6
2017-Jan-16 17:33N 29°34' W 090°43'3 2.9
2017-Jan-16 16:33N 29°32' W 090°46'3 0.6
2017-Jan-16 12:33N 29°32' W 090°49'5 5.3
2017-Jan-16 11:33N 29°34' W 090°43'0 0.5
2017-Jan-16 10:33N 29°34' W 090°43'0 0.0
2017-Jan-16 09:33N 29°34' W 090°43'0 0.0
2017-Jan-16 08:33N 29°34' W 090°43'0 0.0
2017-Jan-16 07:33N 29°34' W 090°43'0 0.0
2017-Jan-16 06:33N 29°34' W 090°43'0 0.0
2017-Jan-16 05:33N 29°34' W 090°43'0 0.0
2017-Jan-16 04:33N 29°34' W 090°43'0 0.0
2017-Jan-16 03:33N 29°34' W 090°43'0 0.0
2017-Jan-16 02:33N 29°34' W 090°43'0 0.0
2017-Jan-16 01:34N 29°34' W 090°43'0 0.0
2017-Jan-16 00:33N 29°34' W 090°43'3 2.7
2017-Jan-15 23:33N 29°36' W 090°40'0 0.2
2017-Jan-15 22:33N 29°36' W 090°40'5 5.4
2017-Jan-15 21:34N 29°33' W 090°45'64 3.1
2017-Jan-15 01:21N 29°51' W 091°56'3 4.3
2017-Jan-15 00:33N 29°50' W 091°59'4 4.4
2017-Jan-14 23:33N 29°48' W 092°04'5 4.6
2017-Jan-14 22:33N 29°47' W 092°09'4 4.5
2017-Jan-14 21:33N 29°48' W 092°14'5 5.2
2017-Jan-14 20:33N 29°50' W 092°20'41 4.5
2017-Jan-14 11:27N 29°56' W 093°06'3 3.6
2017-Jan-14 10:33N 29°56' W 093°10'4 3.8
2017-Jan-14 09:33N 29°59' W 093°13'3 3.4
2017-Jan-14 08:33N 30°02' W 093°15'4 3.6
2017-Jan-14 07:33N 30°05' W 093°17'2 1.5
2017-Jan-14 06:33N 30°06' W 093°19'1 1.2
2017-Jan-14 05:33N 30°05' W 093°20'3 3.2
2017-Jan-14 04:33N 30°04' W 093°23'8 0.2
2017-Jan-12 19:33N 30°04' W 093°32'61 6.5
2017-Jan-12 10:14N 29°53' W 092°23'5 7.4
2017-Jan-12 09:34N 29°50' W 092°18'6 6.2
2017-Jan-12 08:33N 29°47' W 092°12'8 7.6
2017-Jan-12 07:33N 29°49' W 092°03'65 7.1
2017-Jan-11 22:19N 29°32' W 090°50'5 6.7
2017-Jan-11 21:33N 29°34' W 090°45'2 2.1
2017-Jan-11 20:34N 29°34' W 090°43'0 0.0
2017-Jan-11 19:33N 29°34' W 090°43'0 0.0
2017-Jan-11 18:33N 29°34' W 090°43'0 0.0
2017-Jan-11 17:33N 29°34' W 090°43'0 0.0
2017-Jan-11 16:33N 29°34' W 090°43'0 0.0
2017-Jan-11 15:33N 29°34' W 090°43'0 0.0
2017-Jan-11 14:33N 29°34' W 090°43'0 0.0
2017-Jan-11 13:33N 29°34' W 090°43'0 0.0
2017-Jan-11 12:33N 29°34' W 090°43'0 0.0
2017-Jan-11 11:33N 29°34' W 090°43'0 0.0
2017-Jan-11 10:33N 29°34' W 090°43'0 0.0
2017-Jan-11 09:33N 29°34' W 090°43'0 0.0
2017-Jan-11 08:33N 29°34' W 090°43'0 0.0
2017-Jan-11 07:33N 29°34' W 090°43'0 0.0
2017-Jan-11 06:33N 29°34' W 090°43'0 0.0
2017-Jan-11 05:34N 29°34' W 090°43'0 0.0
2017-Jan-11 04:33N 29°34' W 090°43'0 0.0
2017-Jan-11 03:34N 29°34' W 090°43'0 0.0
2017-Jan-11 02:33N 29°34' W 090°43'0 0.0
2017-Jan-11 01:33N 29°34' W 090°43'0 0.0
2017-Jan-11 00:33N 29°34' W 090°43'0 0.0
2017-Jan-10 23:33N 29°34' W 090°43'0 0.0
2017-Jan-10 22:33N 29°34' W 090°43'0 0.0
2017-Jan-10 21:33N 29°34' W 090°43'0 0.2
2017-Jan-10 20:33N 29°34' W 090°43'3 2.7
2017-Jan-10 19:34N 29°36' W 090°41'5 4.3
2017-Jan-10 18:30N 29°35' W 090°36'0 0.0
2017-Jan-10 17:33N 29°35' W 090°36'0 0.0
2017-Jan-10 16:29N 29°35' W 090°36'1 1.1
2017-Jan-10 15:33N 29°35' W 090°38'5 4.7
2017-Jan-10 14:33N 29°34' W 090°43'1 0.9
2017-Jan-10 13:33N 29°33' W 090°43'0 0.0
2017-Jan-10 12:33N 29°33' W 090°43'0 0.0
2017-Jan-10 11:33N 29°33' W 090°43'0 0.0
2017-Jan-10 10:33N 29°33' W 090°43'0 0.0
2017-Jan-10 09:33N 29°33' W 090°43'0 0.0
2017-Jan-10 08:33N 29°33' W 090°43'3 2.5
2017-Jan-10 07:33N 29°33' W 090°45'4 0.3
2017-Jan-09 19:33N 29°32' W 090°50'4 3.7
2017-Jan-09 18:33N 29°32' W 090°46'3 3.0
2017-Jan-09 17:33N 29°34' W 090°43'3 2.5
2017-Jan-09 16:34N 29°32' W 090°42'4 3.4
2017-Jan-09 15:31N 29°28' W 090°43'4 0.7
2017-Jan-09 10:03N 29°24' W 090°44'4 7.7
2017-Jan-09 09:33N 29°28' W 090°43'6 6.0
2017-Jan-09 08:33N 29°34' W 090°43'0 0.0
2017-Jan-09 07:33N 29°34' W 090°43'0 0.0
2017-Jan-09 06:33N 29°34' W 090°43'0 0.0
2017-Jan-09 05:33N 29°34' W 090°43'0 0.0
2017-Jan-09 04:33N 29°34' W 090°43'0 0.0
2017-Jan-09 03:33N 29°34' W 090°43'0 0.0
2017-Jan-09 02:33N 29°34' W 090°43'0 0.0
2017-Jan-09 01:33N 29°34' W 090°43'0 0.0
2017-Jan-09 00:33N 29°34' W 090°43'0 0.0
2017-Jan-08 23:33N 29°34' W 090°43'0 0.0
2017-Jan-08 22:33N 29°34' W 090°43'0 0.0
2017-Jan-08 21:33N 29°34' W 090°43'0 0.0
2017-Jan-08 20:33N 29°34' W 090°43'0 0.0
2017-Jan-08 19:33N 29°34' W 090°43'0 0.0
2017-Jan-08 18:33N 29°34' W 090°43'0 0.0
2017-Jan-08 17:33N 29°34' W 090°43'0 0.0
2017-Jan-08 16:33N 29°34' W 090°43'0 0.0
2017-Jan-08 15:33N 29°34' W 090°43'0 0.0
2017-Jan-08 14:33N 29°34' W 090°43'0 0.0
2017-Jan-08 13:33N 29°34' W 090°43'  

Dump ship's entire track history